createdAt,value
2022-07-26T00:00:56.033Z,39.92
2022-07-26T00:03:23.087Z,39.97
2022-07-26T00:05:50.201Z,39.89
2022-07-26T00:08:17.500Z,39.74
2022-07-26T00:10:50.409Z,39.80
2022-07-26T00:13:21.157Z,40.19
2022-07-26T00:15:50.191Z,39.99
2022-07-26T00:18:18.522Z,39.58
2022-07-26T00:20:47.156Z,40.27
2022-07-26T00:23:15.319Z,40.20
2022-07-26T00:25:42.795Z,40.54
2022-07-26T00:28:09.923Z,40.52
2022-07-26T00:30:44.938Z,40.20
2022-07-26T00:33:12.177Z,40.07
2022-07-26T00:35:39.396Z,40.59
2022-07-26T00:38:07.262Z,40.78
2022-07-26T00:40:35.035Z,40.86
2022-07-26T00:43:02.449Z,40.72
2022-07-26T00:45:29.665Z,40.46
2022-07-26T00:47:56.822Z,40.97
2022-07-26T00:50:23.897Z,40.92
2022-07-26T00:52:51.402Z,41.09
2022-07-26T00:55:18.933Z,41.00
2022-07-26T00:57:46.630Z,40.92
2022-07-26T01:00:19.601Z,41.25
2022-07-26T01:02:47.261Z,41.41
2022-07-26T01:05:14.722Z,41.73
2022-07-26T01:07:43.721Z,41.46
2022-07-26T01:10:12.861Z,41.35
2022-07-26T01:12:42.035Z,41.80
2022-07-26T01:15:12.671Z,42.01
2022-07-26T01:17:40.508Z,41.92
2022-07-26T01:20:12.111Z,41.68
2022-07-26T01:22:39.799Z,41.91
2022-07-26T01:25:07.999Z,41.70
2022-07-26T01:27:39.441Z,41.79
2022-07-26T01:30:12.725Z,42.23
2022-07-26T01:32:40.131Z,42.19
2022-07-26T01:35:08.907Z,42.15
2022-07-26T01:37:36.044Z,42.07
2022-07-26T01:40:10.536Z,42.11
2022-07-26T01:42:40.848Z,42.17
2022-07-26T01:45:10.776Z,42.05
2022-07-26T01:47:40.029Z,42.64
2022-07-26T01:50:08.807Z,42.22
2022-07-26T01:52:39.392Z,42.48
2022-07-26T01:55:06.710Z,42.16
2022-07-26T01:57:33.910Z,42.54
2022-07-26T02:00:01.245Z,42.36
2022-07-26T02:02:33.222Z,42.41
2022-07-26T02:05:01.334Z,42.52
2022-07-26T02:07:33.979Z,42.71
2022-07-26T02:10:01.048Z,42.28
2022-07-26T02:12:28.068Z,42.56
2022-07-26T02:15:12.966Z,42.86
2022-07-26T02:17:40.381Z,43.00
2022-07-26T02:20:09.794Z,43.03
2022-07-26T02:22:38.886Z,43.30
2022-07-26T02:25:06.810Z,43.15
2022-07-26T02:27:34.063Z,43.08
2022-07-26T02:30:02.028Z,42.86
2022-07-26T02:32:29.187Z,43.01
2022-07-26T02:35:00.085Z,43.38
2022-07-26T02:37:27.163Z,43.16
2022-07-26T02:39:54.486Z,43.64
2022-07-26T02:42:21.877Z,43.27
2022-07-26T02:44:48.996Z,43.13
2022-07-26T02:47:16.428Z,43.40
2022-07-26T02:49:43.603Z,43.63
2022-07-26T02:52:10.795Z,43.76
2022-07-26T02:54:38.163Z,43.55
2022-07-26T02:57:05.431Z,43.71
2022-07-26T02:59:32.558Z,44.00
2022-07-26T03:02:02.664Z,44.11
2022-07-26T03:04:30.463Z,43.92
2022-07-26T03:06:57.713Z,44.39
2022-07-26T03:09:24.912Z,43.99
2022-07-26T03:11:52.082Z,44.10
2022-07-26T03:14:19.186Z,43.98
2022-07-26T03:16:46.427Z,44.49
2022-07-26T03:19:13.477Z,44.47
2022-07-26T03:21:40.567Z,44.76
2022-07-26T03:24:08.252Z,44.31
2022-07-26T03:26:35.747Z,44.86
2022-07-26T03:29:03.029Z,44.63
2022-07-26T03:31:30.178Z,44.45
2022-07-26T03:34:01.366Z,44.47
2022-07-26T03:36:30.467Z,44.94
2022-07-26T03:38:57.579Z,44.70
2022-07-26T03:41:25.745Z,44.74
2022-07-26T03:43:53.033Z,44.82
2022-07-26T03:46:20.213Z,44.73
2022-07-26T03:48:47.613Z,44.82
2022-07-26T03:51:14.815Z,44.58
2022-07-26T03:53:41.998Z,45.25
2022-07-26T03:56:27.984Z,44.96
2022-07-26T03:59:05.251Z,45.24
2022-07-26T04:01:34.938Z,45.24
2022-07-26T04:04:03.563Z,45.64
2022-07-26T04:06:30.988Z,45.22
2022-07-26T04:08:58.280Z,45.23
2022-07-26T04:11:27.786Z,45.63
2022-07-26T04:13:57.287Z,45.86
2022-07-26T04:16:24.661Z,45.98
2022-07-26T04:18:56.035Z,45.84
2022-07-26T04:21:23.193Z,45.81
2022-07-26T04:23:51.441Z,46.02
2022-07-26T04:26:25.269Z,46.06
2022-07-26T04:28:52.443Z,45.98
2022-07-26T04:31:19.663Z,45.74
2022-07-26T04:33:46.926Z,46.19
2022-07-26T04:36:14.216Z,46.18
2022-07-26T04:38:41.686Z,45.97
2022-07-26T04:41:08.947Z,45.99
2022-07-26T04:43:42.667Z,46.57
2022-07-26T04:46:09.917Z,46.02
2022-07-26T04:48:40.872Z,46.05
2022-07-26T04:51:08.064Z,46.10
2022-07-26T04:53:35.116Z,46.18
2022-07-26T04:56:02.294Z,46.38
2022-07-26T04:58:29.407Z,46.41
2022-07-26T05:01:09.373Z,46.63
2022-07-26T05:03:38.730Z,46.72
2022-07-26T05:06:06.120Z,46.72
2022-07-26T05:08:33.227Z,46.58
2022-07-26T05:11:00.498Z,46.72
2022-07-26T05:13:30.154Z,46.94
2022-07-26T05:15:59.971Z,46.92
2022-07-26T05:18:31.708Z,46.73
2022-07-26T05:21:10.497Z,47.06
2022-07-26T05:23:37.706Z,46.91
2022-07-26T05:26:04.988Z,46.85
2022-07-26T05:28:32.304Z,47.41
2022-07-26T05:30:59.547Z,47.04
2022-07-26T05:33:27.587Z,47.34
2022-07-26T05:35:54.698Z,47.08
2022-07-26T05:38:21.897Z,47.35
2022-07-26T05:40:50.910Z,47.33
2022-07-26T05:43:18.643Z,47.58
2022-07-26T05:45:45.796Z,47.53
2022-07-26T05:48:13.081Z,47.87
2022-07-26T05:50:40.113Z,47.83
2022-07-26T05:53:07.171Z,47.44
2022-07-26T05:55:34.604Z,47.97
2022-07-26T05:58:01.824Z,47.67
2022-07-26T06:00:29.225Z,47.92
2022-07-26T06:02:56.354Z,47.83
2022-07-26T06:05:23.406Z,47.83
2022-07-26T06:07:50.759Z,47.90
2022-07-26T06:10:20.804Z,47.60
2022-07-26T06:12:48.062Z,47.97
2022-07-26T06:15:16.026Z,48.02
2022-07-26T06:17:43.807Z,48.14
2022-07-26T06:20:11.723Z,47.99
2022-07-26T06:22:38.808Z,48.05
2022-07-26T06:25:06.916Z,48.13
2022-07-26T06:27:34.066Z,48.02
2022-07-26T06:30:01.299Z,48.48
2022-07-26T06:32:28.742Z,48.08
2022-07-26T06:34:55.924Z,48.25
2022-07-26T06:37:22.946Z,48.32
2022-07-26T06:39:50.157Z,48.21
2022-07-26T06:42:17.303Z,48.35
2022-07-26T06:44:44.407Z,48.59
2022-07-26T06:47:11.533Z,48.58
2022-07-26T06:49:38.698Z,48.34
2022-07-26T06:52:06.055Z,48.71
2022-07-26T06:54:33.216Z,48.93
2022-07-26T06:57:00.763Z,48.51
2022-07-26T06:59:27.915Z,48.37
2022-07-26T07:01:58.519Z,49.22
2022-07-26T07:04:32.237Z,49.09
2022-07-26T07:07:06.146Z,48.50
2022-07-26T07:09:34.406Z,49.36
2022-07-26T07:12:10.219Z,49.22
2022-07-26T07:14:39.188Z,48.68
2022-07-26T07:17:10.460Z,48.99
2022-07-26T07:19:40.363Z,49.39
2022-07-26T07:22:11.724Z,49.20
2022-07-26T07:24:44.335Z,48.92
2022-07-26T07:27:16.885Z,48.93
2022-07-26T07:29:44.513Z,48.89
2022-07-26T07:32:15.771Z,49.13
2022-07-26T07:34:43.684Z,49.00
2022-07-26T07:37:12.383Z,48.86
2022-07-26T07:39:39.621Z,48.84
2022-07-26T07:42:08.801Z,49.28
2022-07-26T07:44:35.912Z,48.66
2022-07-26T07:47:03.518Z,48.76
2022-07-26T07:49:31.877Z,49.02
2022-07-26T07:51:59.097Z,49.17
2022-07-26T07:54:27.220Z,49.10
2022-07-26T07:56:56.397Z,49.04
2022-07-26T07:59:24.251Z,49.27
2022-07-26T08:01:51.627Z,48.37
2022-07-26T08:04:19.012Z,48.94
2022-07-26T08:06:50.393Z,49.06
2022-07-26T08:09:19.748Z,48.91
2022-07-26T08:11:50.764Z,48.63
2022-07-26T08:14:19.691Z,48.77
2022-07-26T08:16:47.198Z,48.68
2022-07-26T08:19:15.677Z,49.00
2022-07-26T08:21:45.809Z,48.54
2022-07-26T08:24:14.204Z,49.26
2022-07-26T08:26:41.212Z,49.19
2022-07-26T08:29:08.296Z,48.77
2022-07-26T08:31:35.332Z,47.99
2022-07-26T08:34:02.612Z,48.68
2022-07-26T08:36:32.581Z,48.19
2022-07-26T08:39:01.689Z,48.27
2022-07-26T08:41:31.114Z,48.35
2022-07-26T08:44:11.027Z,48.08
2022-07-26T08:46:41.225Z,48.31
2022-07-26T08:49:12.663Z,47.86
2022-07-26T08:51:44.078Z,47.65
2022-07-26T08:54:14.579Z,47.90
2022-07-26T08:56:55.551Z,47.51
2022-07-26T08:59:25.221Z,47.98
2022-07-26T09:01:56.477Z,47.66
2022-07-26T09:04:34.530Z,47.53
2022-07-26T09:07:10.512Z,47.60
2022-07-26T09:09:57.584Z,47.42
2022-07-26T09:12:28.247Z,47.10
2022-07-26T09:14:57.283Z,46.82
2022-07-26T09:17:38.769Z,47.42
2022-07-26T09:20:16.828Z,47.12
2022-07-26T09:23:07.868Z,46.78
2022-07-26T09:25:46.217Z,46.84
2022-07-26T09:28:32.053Z,47.27
2022-07-26T09:31:03.583Z,46.57
2022-07-26T09:33:51.669Z,46.20
2022-07-26T09:36:20.033Z,46.32
2022-07-26T09:38:51.314Z,46.08
2022-07-26T09:41:36.341Z,46.13
2022-07-26T09:44:21.223Z,46.47
2022-07-26T09:46:59.393Z,45.99
2022-07-26T09:49:40.280Z,46.36
2022-07-26T09:52:20.897Z,46.05
2022-07-26T09:54:49.811Z,45.43
2022-07-26T09:57:23.516Z,46.26
2022-07-26T09:59:51.045Z,45.58
2022-07-26T10:02:20.467Z,45.56
2022-07-26T10:04:47.817Z,45.47
2022-07-26T10:07:17.062Z,45.62
2022-07-26T10:10:00.743Z,45.83
2022-07-26T10:12:32.595Z,45.38
2022-07-26T10:14:59.885Z,44.89
2022-07-26T10:17:31.462Z,44.91
2022-07-26T10:20:04.043Z,45.08
2022-07-26T10:22:41.124Z,45.19
2022-07-26T10:25:20.436Z,45.08
2022-07-26T10:27:50.918Z,45.45
2022-07-26T10:30:22.513Z,45.51
2022-07-26T10:33:03.871Z,45.33
2022-07-26T10:35:42.063Z,45.42
2022-07-26T10:38:23.885Z,44.34
2022-07-26T10:41:07.722Z,44.14
2022-07-26T10:43:42.928Z,44.77
2022-07-26T10:46:16.493Z,44.06
2022-07-26T10:49:06.916Z,44.03
2022-07-26T10:51:39.791Z,44.23
2022-07-26T10:54:11.526Z,44.50
2022-07-26T10:56:39.877Z,43.99
2022-07-26T10:59:07.313Z,44.10
2022-07-26T11:01:40.949Z,44.69
2022-07-26T11:04:20.206Z,44.28
2022-07-26T11:06:48.186Z,45.08
2022-07-26T11:09:16.094Z,44.81
2022-07-26T11:11:46.561Z,44.98
2022-07-26T11:14:17.804Z,44.24
2022-07-26T11:16:50.605Z,44.39
2022-07-26T11:19:22.179Z,45.14
2022-07-26T11:22:00.477Z,44.71
2022-07-26T11:24:28.656Z,45.46
2022-07-26T11:27:02.193Z,45.50
2022-07-26T11:29:38.521Z,45.03
2022-07-26T11:32:21.786Z,45.02
2022-07-26T11:35:03.751Z,45.69
2022-07-26T11:37:31.177Z,45.13
2022-07-26T11:39:58.424Z,45.01
2022-07-26T11:42:27.410Z,44.91
2022-07-26T11:44:54.588Z,45.49
2022-07-26T11:47:26.265Z,45.53
2022-07-26T11:52:42.197Z,44.51
2022-07-26T11:55:10.084Z,44.72
2022-07-26T11:57:37.497Z,45.27
2022-07-26T12:00:07.199Z,44.65
2022-07-26T12:02:34.441Z,45.25
2022-07-26T12:05:22.636Z,44.93
2022-07-26T12:07:59.072Z,44.98
2022-07-26T12:10:27.962Z,44.93
2022-07-26T12:13:16.133Z,44.61
2022-07-26T12:15:50.674Z,44.33
2022-07-26T12:18:30.979Z,44.48
2022-07-26T12:21:06.183Z,45.13
2022-07-26T12:24:00.441Z,44.39
2022-07-26T12:26:30.958Z,44.60
2022-07-26T12:29:19.158Z,44.34
2022-07-26T12:32:12.814Z,44.35
2022-07-26T12:34:55.599Z,44.33
2022-07-26T12:37:27.048Z,44.95
2022-07-26T12:40:12.210Z,44.81
2022-07-26T12:43:03.063Z,44.01
2022-07-26T12:45:33.485Z,43.76
2022-07-26T12:48:06.689Z,44.42
2022-07-26T12:50:33.721Z,43.71
2022-07-26T12:53:07.326Z,43.81
2022-07-26T12:55:35.768Z,43.60
2022-07-26T12:58:03.006Z,43.67
2022-07-26T13:00:30.416Z,44.20
2022-07-26T13:02:58.066Z,44.13
2022-07-26T13:05:25.307Z,43.51
2022-07-26T13:07:52.930Z,43.85
2022-07-26T13:10:33.170Z,43.55
2022-07-26T13:13:01.182Z,44.27
2022-07-26T13:15:37.090Z,43.84
2022-07-26T13:18:09.071Z,43.77
2022-07-26T13:20:39.877Z,44.08
2022-07-26T13:23:13.133Z,43.31
2022-07-26T13:25:41.148Z,43.69
2022-07-26T13:28:09.213Z,43.53
2022-07-26T13:30:38.766Z,43.70
2022-07-26T13:33:06.847Z,43.55
2022-07-26T13:35:34.028Z,43.70
2022-07-26T13:38:01.818Z,43.13
2022-07-26T13:40:31.563Z,43.44
2022-07-26T13:43:00.570Z,43.43
2022-07-26T13:45:29.534Z,43.51
2022-07-26T13:47:59.210Z,44.13
2022-07-26T13:50:28.414Z,43.42
2022-07-26T13:52:56.949Z,43.57
2022-07-26T13:55:25.567Z,43.65
2022-07-26T13:57:56.028Z,43.24
2022-07-26T14:00:30.223Z,43.16
2022-07-26T14:02:58.883Z,44.14
2022-07-26T14:05:28.229Z,43.30
2022-07-26T14:07:55.924Z,44.07
2022-07-26T14:10:24.710Z,43.51
2022-07-26T14:12:53.589Z,43.42
2022-07-26T14:15:22.935Z,43.86
2022-07-26T14:17:53.759Z,44.07
2022-07-26T14:20:21.612Z,43.99
2022-07-26T14:22:53.553Z,44.02
2022-07-26T14:25:25.511Z,44.11
2022-07-26T14:27:54.829Z,43.97
2022-07-26T14:30:23.100Z,43.78
2022-07-26T14:32:50.543Z,43.71
2022-07-26T14:35:18.123Z,43.96
2022-07-26T14:37:46.025Z,43.86
2022-07-26T14:40:17.653Z,44.19
2022-07-26T14:42:46.040Z,43.81
2022-07-26T14:45:15.055Z,44.26
2022-07-26T14:47:43.388Z,43.59
2022-07-26T14:50:17.341Z,43.63
2022-07-26T14:52:47.755Z,43.83
2022-07-26T14:55:25.350Z,43.73
2022-07-26T14:57:52.835Z,43.80
2022-07-26T15:00:20.227Z,43.76
2022-07-26T15:02:49.307Z,44.40
2022-07-26T15:05:17.561Z,43.69
2022-07-26T15:07:45.537Z,44.12
2022-07-26T15:10:14.669Z,44.01
2022-07-26T15:12:43.506Z,43.78
2022-07-26T15:15:12.010Z,43.53
2022-07-26T15:17:39.598Z,43.73
2022-07-26T15:20:07.801Z,43.52
2022-07-26T15:22:36.211Z,43.97
2022-07-26T15:25:03.745Z,43.82
2022-07-26T15:27:30.967Z,43.59
2022-07-26T15:30:03.496Z,44.14
2022-07-26T15:32:33.735Z,43.21
2022-07-26T15:35:00.938Z,44.01
2022-07-26T15:37:28.086Z,43.19
2022-07-26T15:39:55.257Z,42.97
2022-07-26T15:42:23.273Z,42.91
2022-07-26T15:44:50.761Z,43.56
2022-07-26T15:47:51.239Z,43.76
2022-07-26T15:50:14.123Z,43.13
2022-07-26T15:52:48.004Z,43.57
2022-07-26T15:55:18.284Z,43.21
2022-07-26T15:57:47.068Z,43.38
2022-07-26T16:00:15.927Z,43.16
2022-07-26T16:02:44.285Z,43.79
2022-07-26T16:05:13.703Z,43.61
2022-07-26T16:07:42.683Z,43.80
2022-07-26T16:10:13.753Z,43.23
2022-07-26T16:12:43.266Z,43.36
2022-07-26T16:15:12.295Z,43.42
2022-07-26T16:17:39.746Z,43.49
2022-07-26T16:20:07.877Z,42.83
2022-07-26T16:22:35.784Z,42.93
2022-07-26T16:25:05.879Z,43.31
2022-07-26T16:27:33.061Z,43.38
2022-07-26T16:30:01.732Z,43.39
2022-07-26T16:32:28.746Z,43.28
2022-07-26T16:34:55.863Z,43.16
2022-07-26T16:37:23.069Z,42.91
2022-07-26T16:39:50.269Z,42.79
2022-07-26T16:42:20.658Z,42.59
2022-07-26T16:44:47.806Z,43.43
2022-07-26T16:47:15.010Z,42.73
2022-07-26T16:49:43.051Z,42.86
2022-07-26T16:52:10.204Z,43.15
2022-07-26T16:54:37.278Z,43.35
2022-07-26T16:57:04.419Z,42.97
2022-07-26T16:59:31.493Z,42.83
2022-07-26T17:02:01.516Z,42.53
2022-07-26T17:04:30.314Z,42.54
2022-07-26T17:07:23.399Z,42.95
2022-07-26T17:09:44.441Z,42.77
2022-07-26T17:12:11.643Z,42.47
2022-07-26T17:14:38.698Z,42.32
2022-07-26T17:17:05.803Z,42.59
2022-07-26T17:19:32.905Z,43.00
2022-07-26T17:22:00.145Z,43.01
2022-07-26T17:24:27.206Z,43.11
2022-07-26T17:26:54.325Z,42.70
2022-07-26T17:29:21.476Z,42.31
2022-07-26T17:31:50.125Z,43.10
2022-07-26T17:34:17.362Z,43.20
2022-07-26T17:36:46.517Z,42.52
2022-07-26T17:39:15.541Z,43.14
2022-07-26T17:41:47.412Z,43.19
2022-07-26T17:44:15.060Z,43.33
2022-07-26T17:46:42.867Z,43.00
2022-07-26T17:49:10.490Z,43.38
2022-07-26T17:51:38.315Z,43.29
2022-07-26T17:54:05.663Z,43.51
2022-07-26T17:56:32.633Z,43.05
2022-07-26T17:58:59.862Z,43.16
2022-07-26T18:01:30.054Z,43.48
2022-07-26T18:03:57.246Z,43.21
2022-07-26T18:06:24.305Z,42.99
2022-07-26T18:08:51.526Z,43.23
2022-07-26T18:11:18.567Z,43.51
2022-07-26T18:13:45.711Z,43.18
2022-07-26T18:16:14.216Z,43.38
2022-07-26T18:18:41.491Z,42.94
2022-07-26T18:21:08.639Z,43.44
2022-07-26T18:23:35.665Z,43.01
2022-07-26T18:26:03.897Z,43.23
2022-07-26T18:28:30.941Z,43.49
2022-07-26T18:30:58.124Z,42.82
2022-07-26T18:33:28.402Z,43.50
2022-07-26T18:36:00.970Z,43.22
2022-07-26T18:38:28.398Z,43.50
2022-07-26T18:40:55.874Z,43.42
2022-07-26T18:43:23.006Z,43.43
2022-07-26T18:45:50.192Z,43.29
2022-07-26T18:48:20.174Z,43.79
2022-07-26T18:50:47.466Z,43.72
2022-07-26T18:53:14.956Z,43.89
2022-07-26T18:55:41.940Z,44.00
2022-07-26T18:58:09.062Z,44.21
2022-07-26T19:00:36.103Z,43.77
2022-07-26T19:03:03.306Z,44.20
2022-07-26T19:05:32.484Z,43.80
2022-07-26T19:08:03.351Z,44.00
2022-07-26T19:10:31.031Z,43.83
2022-07-26T19:12:58.266Z,44.17
2022-07-26T19:15:25.331Z,43.83
2022-07-26T19:17:52.514Z,44.29
2022-07-26T19:20:19.778Z,43.96
2022-07-26T19:22:48.558Z,44.27
2022-07-26T19:25:16.315Z,44.39
2022-07-26T19:27:44.146Z,44.49
2022-07-26T19:30:12.374Z,44.29
2022-07-26T19:32:40.038Z,44.41
2022-07-26T19:35:08.750Z,44.73
2022-07-26T19:37:36.567Z,44.51
2022-07-26T19:40:05.236Z,44.54
2022-07-26T19:42:32.770Z,44.68
2022-07-26T19:45:00.831Z,44.49
2022-07-26T19:47:29.826Z,44.03
2022-07-26T19:49:57.691Z,44.57
2022-07-26T19:52:24.781Z,44.15
2022-07-26T19:54:51.942Z,44.20
2022-07-26T19:57:19.551Z,44.29
2022-07-26T19:59:48.374Z,44.73
2022-07-26T20:02:16.133Z,44.33
2022-07-26T20:04:46.056Z,44.54
2022-07-26T20:07:19.422Z,44.49
2022-07-26T20:09:49.046Z,44.45
2022-07-26T20:12:18.619Z,44.89
2022-07-26T20:14:45.842Z,44.35
2022-07-26T20:17:13.449Z,44.67
2022-07-26T20:19:41.272Z,44.69
2022-07-26T20:22:08.857Z,44.51
2022-07-26T20:24:38.077Z,44.93
2022-07-26T20:27:07.016Z,45.02
2022-07-26T20:29:34.471Z,44.54
2022-07-26T20:32:02.535Z,44.54
2022-07-26T20:34:30.883Z,44.52
2022-07-26T20:36:57.995Z,44.13
2022-07-26T20:39:27.848Z,44.29
2022-07-26T20:41:55.376Z,44.64
2022-07-26T20:44:28.151Z,43.92
2022-07-26T20:46:55.650Z,44.03
2022-07-26T20:49:22.768Z,43.67
2022-07-26T20:51:50.013Z,43.60
2022-07-26T20:54:17.354Z,43.54
2022-07-26T20:56:44.419Z,44.01
2022-07-26T20:59:11.757Z,44.13
2022-07-26T21:01:39.040Z,44.28
2022-07-26T21:04:06.562Z,43.67
2022-07-26T21:06:33.950Z,43.71
2022-07-26T21:09:01.159Z,43.57
2022-07-26T21:11:36.399Z,43.88
2022-07-26T21:14:03.842Z,43.58
2022-07-26T21:16:31.104Z,43.86
2022-07-26T21:18:58.207Z,43.81
2022-07-26T21:21:27.086Z,43.19
2022-07-26T21:23:54.161Z,43.38
2022-07-26T21:26:25.022Z,43.23
2022-07-26T21:28:52.083Z,43.56
2022-07-26T21:31:19.223Z,43.31
2022-07-26T21:33:46.317Z,43.59
2022-07-26T21:36:14.437Z,43.31
2022-07-26T21:38:42.369Z,43.62
2022-07-26T21:41:13.428Z,43.13
2022-07-26T21:43:40.998Z,43.35
2022-07-26T21:46:12.442Z,43.66
2022-07-26T21:48:40.929Z,43.67
2022-07-26T21:51:08.217Z,43.29
2022-07-26T21:53:35.206Z,43.59
2022-07-26T21:56:02.388Z,43.16
2022-07-26T21:58:33.255Z,43.48
2022-07-26T22:01:06.655Z,43.12
2022-07-26T22:03:36.522Z,43.19
2022-07-26T22:06:09.538Z,43.10
2022-07-26T22:08:37.094Z,43.65
2022-07-26T22:11:05.126Z,43.38
2022-07-26T22:13:32.206Z,43.27
2022-07-26T22:15:59.483Z,43.52
2022-07-26T22:18:27.349Z,43.13
2022-07-26T22:20:55.028Z,43.17
2022-07-26T22:23:30.602Z,43.50
2022-07-26T22:26:04.398Z,43.40
2022-07-26T22:28:34.124Z,43.53
2022-07-26T22:31:02.006Z,43.69
2022-07-26T22:33:29.088Z,43.28
2022-07-26T22:35:56.481Z,43.64
2022-07-26T22:38:23.745Z,43.40
2022-07-26T22:40:51.246Z,43.79
2022-07-26T22:43:18.381Z,43.31
2022-07-26T22:45:45.709Z,43.45
2022-07-26T22:48:12.895Z,44.05
2022-07-26T22:50:40.069Z,43.71
2022-07-26T22:53:07.255Z,44.08
2022-07-26T22:55:34.335Z,43.60
2022-07-26T22:58:01.488Z,43.89
2022-07-26T23:00:29.011Z,44.13
2022-07-26T23:02:56.083Z,43.85
2022-07-26T23:05:25.525Z,44.03
2022-07-26T23:08:03.356Z,43.69
2022-07-26T23:10:30.947Z,43.81
2022-07-26T23:12:58.081Z,44.25
2022-07-26T23:15:25.201Z,43.79
2022-07-26T23:17:52.332Z,44.02
2022-07-26T23:20:19.434Z,44.24
2022-07-26T23:22:46.580Z,44.15
2022-07-26T23:25:13.808Z,44.08
2022-07-26T23:27:40.914Z,43.96
2022-07-26T23:30:08.841Z,44.20
2022-07-26T23:32:35.889Z,43.88
2022-07-26T23:35:03.179Z,44.39
2022-07-26T23:37:30.163Z,44.71
2022-07-26T23:39:57.308Z,44.08
2022-07-26T23:42:24.283Z,44.51
2022-07-26T23:44:51.403Z,44.20
2022-07-26T23:47:18.582Z,43.82
2022-07-26T23:49:45.645Z,43.89
2022-07-26T23:52:12.757Z,44.23
2022-07-26T23:54:39.784Z,44.45
2022-07-26T23:57:06.989Z,44.13
2022-07-26T23:59:34.007Z,44.04
